createdAt,value
2023-05-12T00:00:27.908Z,5.95
2023-05-12T00:00:59.477Z,5.23
2023-05-12T00:01:30.879Z,5.80
2023-05-12T00:02:03.399Z,5.38
2023-05-12T00:02:34.872Z,5.97
2023-05-12T00:03:06.643Z,5.60
2023-05-12T00:03:38.223Z,5.75
2023-05-12T00:04:10.180Z,5.45
2023-05-12T00:04:41.782Z,6.00
2023-05-12T00:05:13.244Z,5.25
2023-05-12T00:05:44.855Z,5.40
2023-05-12T00:06:18.192Z,5.30
2023-05-12T00:06:51.209Z,5.80
2023-05-12T00:07:23.076Z,5.97
2023-05-12T00:07:55.231Z,5.60
2023-05-12T00:08:26.748Z,5.18
2023-05-12T00:08:58.212Z,5.78
2023-05-12T00:09:29.676Z,6.32
2023-05-12T00:10:01.376Z,6.35
2023-05-12T00:10:32.881Z,6.35
2023-05-12T00:11:04.429Z,5.63
2023-05-12T00:11:38.010Z,6.23
2023-05-12T00:12:09.810Z,5.88
2023-05-12T00:12:41.582Z,5.55
2023-05-12T00:13:13.094Z,5.68
2023-05-12T00:13:44.843Z,5.65
2023-05-12T00:14:16.408Z,5.80
2023-05-12T00:14:47.840Z,4.93
2023-05-12T00:15:20.000Z,6.00
2023-05-12T00:15:51.615Z,5.95
2023-05-12T00:16:23.440Z,5.35
2023-05-12T00:16:54.904Z,5.53
2023-05-12T00:17:27.923Z,5.40
2023-05-12T00:17:59.557Z,5.35
2023-05-12T00:18:31.259Z,5.50
2023-05-12T00:19:02.818Z,5.32
2023-05-12T00:19:36.487Z,5.38
2023-05-12T00:20:08.480Z,4.68
2023-05-12T00:20:40.190Z,5.60
2023-05-12T00:21:12.407Z,5.22
2023-05-12T00:21:44.237Z,5.93
2023-05-12T00:22:17.034Z,5.20
2023-05-12T00:22:48.457Z,5.40
2023-05-12T00:23:19.826Z,5.40
2023-05-12T00:23:51.199Z,5.82
2023-05-12T00:24:22.626Z,4.93
2023-05-12T00:24:54.041Z,5.93
2023-05-12T00:25:25.612Z,5.97
2023-05-12T00:25:57.120Z,6.47
2023-05-12T00:26:28.783Z,5.13
2023-05-12T00:27:00.840Z,5.63
2023-05-12T00:27:33.361Z,5.17
2023-05-12T00:28:05.642Z,5.30
2023-05-12T00:28:37.026Z,6.25
2023-05-12T00:29:08.447Z,5.35
2023-05-12T00:29:40.229Z,5.85
2023-05-12T00:30:11.975Z,5.30
2023-05-12T00:30:43.623Z,5.50
2023-05-12T00:31:15.822Z,5.35
2023-05-12T00:31:47.462Z,5.95
2023-05-12T00:32:19.075Z,5.15
2023-05-12T00:32:50.962Z,5.20
2023-05-12T00:33:22.808Z,5.28
2023-05-12T00:33:54.370Z,5.10
2023-05-12T00:34:27.464Z,5.57
2023-05-12T00:35:00.109Z,4.93
2023-05-12T00:35:35.481Z,4.90
2023-05-12T00:36:07.848Z,5.07
2023-05-12T00:36:40.189Z,5.22
2023-05-12T00:37:11.683Z,4.85
2023-05-12T00:37:43.476Z,5.25
2023-05-12T00:38:14.950Z,5.20
2023-05-12T00:38:46.559Z,5.05
2023-05-12T00:39:18.239Z,5.25
2023-05-12T00:39:49.787Z,5.72
2023-05-12T00:40:21.215Z,5.40
2023-05-12T00:40:53.138Z,5.57
2023-05-12T00:41:24.480Z,5.20
2023-05-12T00:41:59.211Z,4.95
2023-05-12T00:42:30.763Z,4.90
2023-05-12T00:43:03.117Z,4.85
2023-05-12T00:43:34.526Z,4.53
2023-05-12T00:44:05.955Z,5.40
2023-05-12T00:44:37.601Z,4.70
2023-05-12T00:45:09.425Z,4.60
2023-05-12T00:45:40.911Z,5.50
2023-05-12T00:46:12.550Z,4.43
2023-05-12T00:46:44.019Z,4.90
2023-05-12T00:47:15.754Z,4.70
2023-05-12T00:47:47.452Z,5.35
2023-05-12T00:48:19.552Z,5.20
2023-05-12T00:48:51.694Z,4.50
2023-05-12T00:49:25.638Z,4.97
2023-05-12T00:49:57.108Z,4.95
2023-05-12T00:50:28.617Z,5.47
2023-05-12T00:51:02.084Z,5.20
2023-05-12T00:51:34.060Z,4.80
2023-05-12T00:52:08.419Z,5.07
2023-05-12T00:52:40.173Z,4.80
2023-05-12T00:53:12.854Z,5.30
2023-05-12T00:53:50.046Z,4.43
2023-05-12T00:54:22.634Z,5.17
2023-05-12T00:54:54.693Z,5.10
2023-05-12T00:55:26.878Z,4.97
2023-05-12T00:55:58.630Z,5.25
2023-05-12T00:56:35.442Z,5.40
2023-05-12T00:57:06.887Z,5.40
2023-05-12T00:57:38.837Z,5.57
2023-05-12T00:58:10.325Z,4.82
2023-05-12T00:58:41.768Z,5.45
2023-05-12T00:59:13.302Z,5.15
2023-05-12T00:59:45.985Z,4.73
2023-05-12T01:00:18.662Z,5.22
2023-05-12T01:00:50.629Z,5.68
2023-05-12T01:01:24.026Z,5.60
2023-05-12T01:01:56.428Z,5.60
2023-05-12T01:02:28.974Z,5.18
2023-05-12T01:03:00.984Z,5.13
2023-05-12T01:03:32.604Z,5.28
2023-05-12T01:04:04.279Z,5.10
2023-05-12T01:04:36.202Z,5.20
2023-05-12T01:05:10.033Z,5.00
2023-05-12T01:05:51.045Z,5.53
2023-05-12T01:06:30.057Z,6.40
2023-05-12T01:07:12.601Z,5.15
2023-05-12T01:07:46.701Z,5.40
2023-05-12T01:08:20.222Z,5.40
2023-05-12T01:08:53.125Z,5.63
2023-05-12T01:09:24.960Z,5.88
2023-05-12T01:09:57.186Z,4.97
2023-05-12T01:10:28.797Z,5.10
2023-05-12T01:11:00.312Z,5.70
2023-05-12T01:11:31.750Z,5.05
2023-05-12T01:12:03.632Z,5.43
2023-05-12T01:12:35.019Z,4.63
2023-05-12T01:13:06.720Z,4.68
2023-05-12T01:13:41.099Z,4.95
2023-05-12T01:14:12.711Z,5.20
2023-05-12T01:14:44.172Z,5.80
2023-05-12T01:15:15.963Z,5.63
2023-05-12T01:15:48.301Z,4.93
2023-05-12T01:16:26.201Z,5.37
2023-05-12T01:17:01.979Z,5.60
2023-05-12T01:17:36.445Z,5.10
2023-05-12T01:18:10.678Z,4.82
2023-05-12T01:18:49.791Z,5.05
2023-05-12T01:19:49.509Z,4.78
2023-05-12T01:20:23.858Z,5.07
2023-05-12T01:20:56.535Z,4.97
2023-05-12T01:21:28.066Z,4.60
2023-05-12T01:22:00.444Z,4.95
2023-05-12T01:22:34.166Z,5.17
2023-05-12T01:23:06.784Z,5.22
2023-05-12T01:23:44.543Z,4.75
2023-05-12T01:24:19.924Z,5.10
2023-05-12T01:24:55.419Z,4.80
2023-05-12T01:25:31.079Z,5.38
2023-05-12T01:26:06.683Z,4.90
2023-05-12T01:26:38.743Z,5.53
2023-05-12T01:27:10.727Z,5.10
2023-05-12T01:27:43.168Z,3.88
2023-05-12T01:28:16.269Z,4.47
2023-05-12T01:28:48.247Z,5.00
2023-05-12T01:29:21.077Z,5.35
2023-05-12T01:30:01.992Z,5.35
2023-05-12T01:30:34.389Z,5.32
2023-05-12T01:31:07.729Z,5.20
2023-05-12T01:31:39.313Z,5.22
2023-05-12T01:32:11.057Z,4.85
2023-05-12T01:32:42.777Z,5.43
2023-05-12T01:33:14.337Z,4.32
2023-05-12T01:33:45.746Z,5.70
2023-05-12T01:34:18.523Z,5.68
2023-05-12T01:34:51.070Z,5.03
2023-05-12T01:35:22.475Z,5.38
2023-05-12T01:35:53.909Z,5.45
2023-05-12T01:36:25.436Z,5.40
2023-05-12T01:36:57.389Z,5.00
2023-05-12T01:37:29.021Z,5.45
2023-05-12T01:38:00.829Z,5.82
2023-05-12T01:38:32.942Z,5.18
2023-05-12T01:39:04.386Z,5.43
2023-05-12T01:39:36.601Z,5.28
2023-05-12T01:40:08.611Z,4.82
2023-05-12T01:40:39.990Z,5.75
2023-05-12T01:41:11.603Z,5.40
2023-05-12T01:41:48.725Z,5.25
2023-05-12T01:42:20.153Z,4.88
2023-05-12T01:42:51.536Z,5.85
2023-05-12T01:43:22.989Z,5.13
2023-05-12T01:43:54.410Z,4.90
2023-05-12T01:44:27.190Z,4.53
2023-05-12T01:44:58.554Z,4.43
2023-05-12T01:45:30.092Z,5.07
2023-05-12T01:46:01.634Z,5.22
2023-05-12T01:46:33.135Z,4.93
2023-05-12T01:47:04.814Z,5.00
2023-05-12T01:47:36.514Z,4.88
2023-05-12T01:48:08.083Z,5.88
2023-05-12T01:48:39.523Z,5.07
2023-05-12T01:49:10.909Z,4.63
2023-05-12T01:49:42.415Z,4.30
2023-05-12T01:50:13.770Z,4.32
2023-05-12T01:50:45.424Z,4.63
2023-05-12T01:51:17.355Z,4.55
2023-05-12T01:51:48.863Z,4.68
2023-05-12T01:52:20.907Z,3.95
2023-05-12T01:52:52.237Z,5.07
2023-05-12T01:53:25.950Z,4.57
2023-05-12T01:53:57.723Z,5.07
2023-05-12T01:54:29.618Z,4.63
2023-05-12T01:55:01.040Z,4.97
2023-05-12T01:55:32.469Z,4.60
2023-05-12T01:56:04.127Z,4.63
2023-05-12T01:56:35.675Z,5.05
2023-05-12T01:57:07.070Z,5.13
2023-05-12T01:57:38.529Z,4.93
2023-05-12T01:58:09.889Z,4.90
2023-05-12T01:58:41.427Z,4.65
2023-05-12T01:59:12.873Z,4.13
2023-05-12T01:59:44.257Z,4.50
2023-05-12T02:00:16.210Z,4.07
2023-05-12T02:00:47.806Z,3.80
2023-05-12T02:01:19.212Z,4.70
2023-05-12T02:01:50.794Z,5.00
2023-05-12T02:02:22.229Z,4.00
2023-05-12T02:02:53.905Z,4.60
2023-05-12T02:03:25.474Z,4.95
2023-05-12T02:03:57.388Z,4.18
2023-05-12T02:04:28.963Z,5.00
2023-05-12T02:05:00.630Z,4.18
2023-05-12T02:05:32.012Z,3.73
2023-05-12T02:06:03.603Z,4.40
2023-05-12T02:06:35.021Z,4.40
2023-05-12T02:07:06.427Z,4.47
2023-05-12T02:07:38.642Z,4.40
2023-05-12T02:08:10.061Z,4.63
2023-05-12T02:08:41.671Z,3.65
2023-05-12T02:09:13.295Z,3.95
2023-05-12T02:09:44.690Z,4.05
2023-05-12T02:10:16.731Z,3.45
2023-05-12T02:10:48.305Z,3.97
2023-05-12T02:11:19.981Z,4.00
2023-05-12T02:11:51.735Z,3.60
2023-05-12T02:12:23.126Z,3.63
2023-05-12T02:12:54.587Z,3.60
2023-05-12T02:13:26.124Z,3.45
2023-05-12T02:13:58.509Z,3.72
2023-05-12T02:14:29.904Z,3.40
2023-05-12T02:15:01.577Z,3.97
2023-05-12T02:15:32.912Z,4.18
2023-05-12T02:16:05.059Z,3.30
2023-05-12T02:16:36.725Z,3.60
2023-05-12T02:17:08.612Z,3.30
2023-05-12T02:17:40.046Z,3.88
2023-05-12T02:18:11.729Z,3.85
2023-05-12T02:18:43.148Z,3.72
2023-05-12T02:19:14.573Z,3.42
2023-05-12T02:19:46.121Z,3.53
2023-05-12T02:20:17.726Z,2.90
2023-05-12T02:20:49.686Z,3.80
2023-05-12T02:21:21.154Z,3.43
2023-05-12T02:21:52.641Z,3.50
2023-05-12T02:22:24.011Z,3.45
2023-05-12T02:22:55.583Z,3.50
2023-05-12T02:23:26.968Z,3.47
2023-05-12T02:23:58.324Z,3.88
2023-05-12T02:24:29.738Z,3.60
2023-05-12T02:25:01.386Z,3.60
2023-05-12T02:25:32.815Z,3.30
2023-05-12T02:26:04.295Z,3.63
2023-05-12T02:26:35.662Z,4.03
2023-05-12T02:27:07.060Z,3.97
2023-05-12T02:27:38.479Z,3.35
2023-05-12T02:28:11.712Z,3.42
2023-05-12T02:28:43.237Z,3.50
2023-05-12T02:29:14.651Z,3.65
2023-05-12T02:29:46.314Z,3.58
2023-05-12T02:30:18.133Z,3.20
2023-05-12T02:30:51.033Z,3.55
2023-05-12T02:31:22.725Z,3.30
2023-05-12T02:31:54.327Z,3.47
2023-05-12T02:32:28.134Z,3.13
2023-05-12T02:32:59.589Z,3.58
2023-05-12T02:33:31.056Z,3.50
2023-05-12T02:34:05.802Z,4.82
2023-05-12T02:34:37.959Z,3.42
2023-05-12T02:35:09.981Z,3.33
2023-05-12T02:35:41.325Z,3.60
2023-05-12T02:36:12.788Z,3.78
2023-05-12T02:36:44.247Z,4.10
2023-05-12T02:37:15.799Z,4.20
2023-05-12T02:37:47.160Z,3.95
2023-05-12T02:38:18.743Z,3.85
2023-05-12T02:38:50.150Z,4.68
2023-05-12T02:39:21.594Z,4.25
2023-05-12T02:39:52.935Z,4.13
2023-05-12T02:40:24.269Z,3.65
2023-05-12T02:40:55.845Z,4.55
2023-05-12T02:41:27.262Z,4.45
2023-05-12T02:41:58.607Z,4.60
2023-05-12T02:42:35.282Z,3.80
2023-05-12T02:43:07.186Z,4.05
2023-05-12T02:43:38.584Z,3.85
2023-05-12T02:44:09.892Z,4.78
2023-05-12T02:44:41.209Z,4.50
2023-05-12T02:45:13.051Z,3.90
2023-05-12T02:45:44.469Z,4.25
2023-05-12T02:46:15.984Z,4.05
2023-05-12T02:46:47.414Z,4.68
2023-05-12T02:47:18.738Z,4.28
2023-05-12T02:47:50.205Z,4.53
2023-05-12T02:48:21.718Z,4.15
2023-05-12T02:48:53.165Z,4.65
2023-05-12T02:49:24.864Z,5.20
2023-05-12T02:49:56.954Z,4.03
2023-05-12T02:50:28.613Z,4.20
2023-05-12T02:51:00.007Z,4.93
2023-05-12T02:51:31.944Z,5.03
2023-05-12T02:52:03.660Z,4.07
2023-05-12T02:52:35.205Z,4.22
2023-05-12T02:53:06.901Z,3.83
2023-05-12T02:53:38.403Z,4.72
2023-05-12T02:54:09.952Z,4.68
2023-05-12T02:54:41.400Z,5.03
2023-05-12T02:55:12.748Z,5.07
2023-05-12T02:55:44.196Z,4.82
2023-05-12T02:56:16.227Z,4.63
2023-05-12T02:56:49.864Z,5.20
2023-05-12T02:57:21.353Z,5.72
2023-05-12T02:57:53.390Z,4.75
2023-05-12T02:58:25.221Z,5.60
2023-05-12T02:58:56.619Z,4.97
2023-05-12T02:59:28.739Z,4.72
2023-05-12T03:00:01.608Z,5.25
2023-05-12T03:00:33.070Z,5.40
2023-05-12T03:01:10.966Z,5.75
2023-05-12T03:01:43.197Z,4.72
2023-05-12T03:02:14.675Z,5.88
2023-05-12T03:02:46.155Z,6.03
2023-05-12T03:03:17.949Z,5.78
2023-05-12T03:03:49.495Z,4.50
2023-05-12T03:04:20.873Z,5.38
2023-05-12T03:04:52.204Z,5.60
2023-05-12T03:05:23.622Z,5.72
2023-05-12T03:05:55.343Z,5.85
2023-05-12T03:06:26.772Z,5.43
2023-05-12T03:06:58.149Z,5.30
2023-05-12T03:07:29.641Z,6.03
2023-05-12T03:08:01.208Z,5.57
2023-05-12T03:08:32.892Z,5.38
2023-05-12T03:09:04.350Z,6.03
2023-05-12T03:09:35.803Z,5.50
2023-05-12T03:10:09.830Z,5.82
2023-05-12T03:10:41.390Z,5.72
2023-05-12T03:11:13.041Z,6.13
2023-05-12T03:11:44.488Z,5.50
2023-05-12T03:12:16.012Z,5.22
2023-05-12T03:12:47.548Z,5.40
2023-05-12T03:13:18.949Z,6.18
2023-05-12T03:13:50.502Z,5.32
2023-05-12T03:14:21.900Z,6.10
2023-05-12T03:14:53.344Z,6.15
2023-05-12T03:15:24.950Z,6.32
2023-05-12T03:16:01.071Z,6.32
2023-05-12T03:16:32.494Z,6.55
2023-05-12T03:17:04.234Z,6.65
2023-05-12T03:17:36.515Z,5.90
2023-05-12T03:18:08.045Z,7.65
2023-05-12T03:18:39.500Z,6.80
2023-05-12T03:19:10.985Z,6.65
2023-05-12T03:19:42.589Z,6.60
2023-05-12T03:20:13.983Z,7.32
2023-05-12T03:20:45.481Z,6.38
2023-05-12T03:21:17.103Z,7.40
2023-05-12T03:21:49.329Z,7.50
2023-05-12T03:22:20.842Z,7.10
2023-05-12T03:22:52.317Z,7.20
2023-05-12T03:23:23.801Z,6.22
2023-05-12T03:23:55.185Z,6.45
2023-05-12T03:24:26.805Z,7.03
2023-05-12T03:24:58.258Z,6.87
2023-05-12T03:25:29.783Z,7.55
2023-05-12T03:26:01.487Z,7.07
2023-05-12T03:26:32.829Z,7.80
2023-05-12T03:27:04.393Z,8.65
2023-05-12T03:27:36.076Z,7.47
2023-05-12T03:28:07.474Z,7.63
2023-05-12T03:28:38.865Z,8.10
2023-05-12T03:29:10.675Z,7.93
2023-05-12T03:29:42.052Z,7.70
2023-05-12T03:30:14.546Z,8.13
2023-05-12T03:30:46.061Z,8.30
2023-05-12T03:31:17.880Z,8.73
2023-05-12T03:31:49.408Z,8.65
2023-05-12T03:32:20.857Z,7.93
2023-05-12T03:32:52.349Z,8.02
2023-05-12T03:33:23.700Z,8.63
2023-05-12T03:33:55.054Z,7.95
2023-05-12T03:34:26.400Z,8.23
2023-05-12T03:34:57.900Z,8.32
2023-05-12T03:35:29.657Z,8.70
2023-05-12T03:36:01.096Z,9.02
2023-05-12T03:36:32.534Z,9.02
2023-05-12T03:37:04.092Z,9.75
2023-05-12T03:37:35.537Z,9.30
2023-05-12T03:38:07.036Z,8.27
2023-05-12T03:38:38.455Z,9.85
2023-05-12T03:39:09.924Z,10.13
2023-05-12T03:39:41.371Z,10.23
2023-05-12T03:40:18.527Z,9.15
2023-05-12T03:40:53.248Z,8.73
2023-05-12T03:41:25.133Z,9.35
2023-05-12T03:41:56.733Z,10.02
2023-05-12T03:42:28.706Z,9.70
2023-05-12T03:43:00.125Z,10.38
2023-05-12T03:43:32.150Z,10.00
2023-05-12T03:44:05.608Z,9.70
2023-05-12T03:44:37.008Z,10.30
2023-05-12T03:45:09.574Z,10.10
2023-05-12T03:45:41.378Z,11.48
2023-05-12T03:46:12.758Z,9.73
2023-05-12T03:46:44.299Z,10.30
2023-05-12T03:47:15.896Z,10.95
2023-05-12T03:47:47.566Z,10.90
2023-05-12T03:48:19.111Z,11.00
2023-05-12T03:48:51.489Z,10.07
2023-05-12T03:49:22.969Z,10.65
2023-05-12T03:49:54.701Z,10.82
2023-05-12T03:50:26.089Z,10.13
2023-05-12T03:50:57.499Z,11.13
2023-05-12T03:51:29.005Z,11.30
2023-05-12T03:52:00.631Z,10.73
2023-05-12T03:52:32.027Z,10.30
2023-05-12T03:53:03.461Z,11.63
2023-05-12T03:53:34.897Z,10.60
2023-05-12T03:54:06.292Z,10.70
2023-05-12T03:54:38.104Z,10.98
2023-05-12T03:55:10.329Z,11.00
2023-05-12T03:55:42.354Z,11.73
2023-05-12T03:56:15.698Z,10.80
2023-05-12T03:56:47.150Z,11.93
2023-05-12T03:57:18.559Z,11.60
2023-05-12T03:57:50.265Z,11.30
2023-05-12T03:58:24.557Z,11.65
2023-05-12T03:58:57.153Z,11.25
2023-05-12T03:59:31.539Z,10.80
2023-05-12T04:00:04.996Z,11.23
2023-05-12T04:00:36.994Z,11.50
2023-05-12T04:01:08.570Z,11.55
2023-05-12T04:01:40.045Z,12.18
2023-05-12T04:02:13.280Z,11.57
2023-05-12T04:02:44.939Z,11.90
2023-05-12T04:03:17.148Z,11.48
2023-05-12T04:03:48.956Z,11.52
2023-05-12T04:04:20.680Z,13.48
2023-05-12T04:04:52.048Z,11.65
2023-05-12T04:05:23.493Z,12.23
2023-05-12T04:06:02.363Z,13.07
2023-05-12T04:06:33.814Z,12.40
2023-05-12T04:07:05.245Z,11.57
2023-05-12T04:07:37.058Z,12.17
2023-05-12T04:08:09.341Z,11.68
2023-05-12T04:08:42.101Z,12.70
2023-05-12T04:09:13.806Z,13.40
2023-05-12T04:09:45.218Z,12.60
2023-05-12T04:10:17.341Z,13.25
2023-05-12T04:10:48.838Z,12.75
2023-05-12T04:11:20.734Z,13.35
2023-05-12T04:11:52.079Z,12.10
2023-05-12T04:12:23.570Z,12.10
2023-05-12T04:12:55.309Z,12.80
2023-05-12T04:13:28.866Z,13.23
2023-05-12T04:14:00.270Z,13.90
2023-05-12T04:14:41.697Z,12.82
2023-05-12T04:15:14.992Z,13.43
2023-05-12T04:15:46.661Z,13.55
2023-05-12T04:16:18.314Z,13.90
2023-05-12T04:16:49.844Z,14.23
2023-05-12T04:17:21.322Z,13.57
2023-05-12T04:17:52.770Z,13.70
2023-05-12T04:18:25.585Z,13.97
2023-05-12T04:18:57.358Z,12.85
2023-05-12T04:19:28.842Z,13.23
2023-05-12T04:20:00.577Z,13.18
2023-05-12T04:20:31.962Z,13.85
2023-05-12T04:21:03.771Z,13.57
2023-05-12T04:21:35.408Z,12.80
2023-05-12T04:22:06.756Z,13.73
2023-05-12T04:22:38.302Z,14.65
2023-05-12T04:23:09.846Z,12.60
2023-05-12T04:23:41.497Z,13.40
2023-05-12T04:24:12.917Z,13.80
2023-05-12T04:24:44.606Z,13.18
2023-05-12T04:25:16.179Z,14.23
2023-05-12T04:25:47.895Z,14.00
2023-05-12T04:26:19.354Z,13.85
2023-05-12T04:26:51.285Z,14.75
2023-05-12T04:27:23.447Z,14.27
2023-05-12T04:27:54.804Z,14.80
2023-05-12T04:28:26.257Z,13.50
2023-05-12T04:28:57.648Z,12.97
2023-05-12T04:29:29.551Z,15.80
2023-05-12T04:30:01.315Z,15.68
2023-05-12T04:30:33.232Z,14.27
2023-05-12T04:31:04.706Z,14.30
2023-05-12T04:31:36.322Z,14.82
2023-05-12T04:32:08.222Z,14.85
2023-05-12T04:32:39.902Z,14.20
2023-05-12T04:33:11.496Z,14.70
2023-05-12T04:33:43.308Z,15.57
2023-05-12T04:34:14.657Z,15.43
2023-05-12T04:34:46.832Z,14.82
2023-05-12T04:35:18.216Z,15.77
2023-05-12T04:35:49.580Z,16.05
2023-05-12T04:36:21.030Z,15.82
2023-05-12T04:36:53.017Z,14.57
2023-05-12T04:37:24.439Z,16.13
2023-05-12T04:37:55.873Z,15.52
2023-05-12T04:38:27.564Z,16.52
2023-05-12T04:38:59.122Z,15.05
2023-05-12T04:39:30.616Z,16.73
2023-05-12T04:40:02.163Z,16.27
2023-05-12T04:40:35.005Z,15.55
2023-05-12T04:41:06.665Z,17.83
2023-05-12T04:41:38.117Z,15.52
2023-05-12T04:42:09.542Z,15.63
2023-05-12T04:42:41.037Z,16.30
2023-05-12T04:43:59.895Z,16.75
2023-05-12T04:44:03.914Z,15.88
2023-05-12T04:44:35.462Z,15.10
2023-05-12T04:45:07.866Z,16.73
2023-05-12T04:45:39.337Z,15.68
2023-05-12T04:46:10.786Z,16.02
2023-05-12T04:46:43.139Z,17.20
2023-05-12T04:47:14.602Z,16.92
2023-05-12T04:47:46.250Z,16.42
2023-05-12T04:48:17.670Z,15.65
2023-05-12T04:48:49.214Z,16.77
2023-05-12T04:49:20.615Z,18.35
2023-05-12T04:49:52.121Z,18.08
2023-05-12T04:50:23.654Z,18.27
2023-05-12T04:50:55.691Z,16.65
2023-05-12T04:51:27.070Z,17.75
2023-05-12T04:51:58.654Z,17.55
2023-05-12T04:52:30.288Z,16.80
2023-05-12T04:53:01.697Z,16.35
2023-05-12T04:53:34.667Z,17.17
2023-05-12T04:54:06.169Z,17.20
2023-05-12T04:54:38.892Z,17.90
2023-05-12T04:55:10.401Z,16.95
2023-05-12T04:55:42.760Z,17.60
2023-05-12T04:56:14.458Z,16.85
2023-05-12T04:56:46.217Z,18.30
2023-05-12T04:57:17.622Z,17.95
2023-05-12T04:57:49.345Z,16.88
2023-05-12T04:58:20.755Z,17.02
2023-05-12T04:58:52.191Z,18.13
2023-05-12T04:59:24.085Z,18.33
2023-05-12T04:59:56.438Z,18.98
2023-05-12T05:00:27.884Z,17.02
2023-05-12T05:01:00.029Z,17.17
2023-05-12T05:01:31.735Z,17.48
2023-05-12T05:02:03.338Z,16.92
2023-05-12T05:02:35.459Z,18.92
2023-05-12T05:03:07.069Z,18.33
2023-05-12T05:03:39.501Z,18.00
2023-05-12T05:04:13.294Z,17.25
2023-05-12T05:04:44.875Z,16.85
2023-05-12T05:05:16.574Z,19.17
2023-05-12T05:05:49.137Z,17.77
2023-05-12T05:06:20.687Z,19.30
2023-05-12T05:06:52.144Z,19.05
2023-05-12T05:07:23.551Z,18.50
2023-05-12T05:07:54.925Z,18.55
2023-05-12T05:08:26.368Z,18.95
2023-05-12T05:08:57.782Z,18.60
2023-05-12T05:09:29.479Z,19.60
2023-05-12T05:10:01.090Z,19.17
2023-05-12T05:10:32.630Z,18.80
2023-05-12T05:11:04.378Z,19.60
2023-05-12T05:11:35.780Z,19.53
2023-05-12T05:12:07.723Z,18.73
2023-05-12T05:12:39.054Z,19.15
2023-05-12T05:13:10.441Z,18.80
2023-05-12T05:13:41.792Z,20.98
2023-05-12T05:14:13.268Z,19.95
2023-05-12T05:14:47.582Z,19.58
2023-05-12T05:15:19.758Z,19.30
2023-05-12T05:15:52.355Z,19.10
2023-05-12T05:16:24.242Z,18.30
2023-05-12T05:16:55.910Z,18.43
2023-05-12T05:17:28.083Z,19.23
2023-05-12T05:18:01.813Z,19.85
2023-05-12T05:18:33.608Z,18.75
2023-05-12T05:19:06.657Z,19.38
2023-05-12T05:19:54.830Z,18.63
2023-05-12T05:20:29.578Z,18.48
2023-05-12T05:21:03.297Z,18.75
2023-05-12T05:21:34.682Z,19.60
2023-05-12T05:22:06.040Z,18.60
2023-05-12T05:22:39.509Z,19.03
2023-05-12T05:23:12.058Z,19.55
2023-05-12T05:23:43.483Z,18.42
2023-05-12T05:24:14.989Z,20.75
2023-05-12T05:24:46.469Z,20.25
2023-05-12T05:25:18.011Z,19.05
2023-05-12T05:25:49.489Z,19.83
2023-05-12T05:26:21.528Z,20.25
2023-05-12T05:26:52.934Z,19.65
2023-05-12T05:27:24.332Z,19.20
2023-05-12T05:27:56.120Z,19.10
2023-05-12T05:28:27.482Z,20.00
2023-05-12T05:28:59.006Z,20.17
2023-05-12T05:29:30.434Z,20.05
2023-05-12T05:30:02.568Z,20.52
2023-05-12T05:30:34.038Z,20.30
2023-05-12T05:31:06.442Z,20.30
2023-05-12T05:31:38.703Z,21.02
2023-05-12T05:32:10.139Z,19.52
2023-05-12T05:32:41.594Z,20.17
2023-05-12T05:33:13.301Z,20.03
2023-05-12T05:33:44.884Z,20.58
2023-05-12T05:34:16.498Z,19.70
2023-05-12T05:34:47.882Z,21.20
2023-05-12T05:35:19.539Z,19.95
2023-05-12T05:35:51.299Z,20.55
2023-05-12T05:36:23.033Z,19.70
2023-05-12T05:36:54.637Z,20.25
2023-05-12T05:37:26.093Z,19.80
2023-05-12T05:37:57.545Z,20.65
2023-05-12T05:38:28.974Z,20.40
2023-05-12T05:39:00.590Z,21.80
2023-05-12T05:39:32.194Z,21.25
2023-05-12T05:40:03.917Z,21.30
2023-05-12T05:40:48.905Z,20.95
2023-05-12T05:41:24.623Z,19.90
2023-05-12T05:41:57.416Z,19.33
2023-05-12T05:42:28.830Z,19.90
2023-05-12T05:43:00.373Z,20.17
2023-05-12T05:43:31.807Z,21.25
2023-05-12T05:44:03.210Z,20.00
2023-05-12T05:44:34.533Z,20.58
2023-05-12T05:45:06.582Z,21.50
2023-05-12T05:45:37.974Z,20.60
2023-05-12T05:46:09.427Z,20.10
2023-05-12T05:46:40.903Z,20.50
2023-05-12T05:47:12.332Z,20.95
2023-05-12T05:47:43.776Z,22.52
2023-05-12T05:48:15.354Z,21.27
2023-05-12T05:48:46.722Z,20.35
2023-05-12T05:49:18.967Z,20.03
2023-05-12T05:49:50.322Z,21.65
2023-05-12T05:50:21.721Z,19.77
2023-05-12T05:50:53.947Z,22.17
2023-05-12T05:51:25.409Z,22.00
2023-05-12T05:51:56.956Z,21.23
2023-05-12T05:52:28.423Z,21.63
2023-05-12T05:52:59.754Z,20.77
2023-05-12T05:53:31.347Z,21.73
2023-05-12T05:54:02.902Z,20.70
2023-05-12T05:54:34.266Z,20.20
2023-05-12T05:55:05.937Z,20.85
2023-05-12T05:55:38.108Z,20.80
2023-05-12T05:56:09.742Z,22.02
2023-05-12T05:56:41.246Z,21.40
2023-05-12T05:57:12.746Z,21.45
2023-05-12T05:57:44.094Z,21.55
2023-05-12T05:58:15.617Z,21.77
2023-05-12T05:58:47.030Z,21.77
2023-05-12T05:59:18.424Z,21.25
2023-05-12T05:59:49.848Z,20.87
2023-05-12T06:00:21.271Z,21.27
2023-05-12T06:00:52.731Z,21.23
2023-05-12T06:01:24.142Z,20.58
2023-05-12T06:01:55.658Z,21.88
2023-05-12T06:02:27.930Z,21.52
2023-05-12T06:02:59.465Z,21.00
2023-05-12T06:03:31.413Z,20.92
2023-05-12T06:04:02.875Z,21.15
2023-05-12T06:04:34.370Z,20.88
2023-05-12T06:05:07.115Z,21.83
2023-05-12T06:05:38.816Z,21.45
2023-05-12T06:06:10.292Z,21.40
2023-05-12T06:06:41.751Z,21.05
2023-05-12T06:07:13.168Z,22.27
2023-05-12T06:07:44.564Z,21.20
2023-05-12T06:08:16.035Z,21.33
2023-05-12T06:08:47.533Z,20.83
2023-05-12T06:09:18.981Z,20.88
2023-05-12T06:09:50.395Z,21.77
2023-05-12T06:10:22.221Z,22.60
2023-05-12T06:10:53.856Z,21.65
2023-05-12T06:11:25.611Z,21.83
2023-05-12T06:11:56.972Z,22.17
2023-05-12T06:12:28.479Z,20.83
2023-05-12T06:12:59.897Z,21.02
2023-05-12T06:13:31.356Z,20.63
2023-05-12T06:14:02.727Z,21.13
2023-05-12T06:14:34.141Z,21.27
2023-05-12T06:15:06.054Z,21.35
2023-05-12T06:15:37.693Z,21.87
2023-05-12T06:16:09.142Z,20.52
2023-05-12T06:16:40.653Z,21.67
2023-05-12T06:17:12.259Z,22.17
2023-05-12T06:17:43.988Z,21.02
2023-05-12T06:18:16.204Z,20.50
2023-05-12T06:18:47.639Z,21.42
2023-05-12T06:19:19.077Z,22.13
2023-05-12T06:19:51.001Z,22.02
2023-05-12T06:20:23.369Z,21.20
2023-05-12T06:20:54.975Z,21.10
2023-05-12T06:21:26.373Z,20.55
2023-05-12T06:21:58.075Z,20.25
2023-05-12T06:22:29.417Z,21.85
2023-05-12T06:23:00.841Z,21.77
2023-05-12T06:23:32.419Z,21.95
2023-05-12T06:24:03.775Z,21.30
2023-05-12T06:24:35.116Z,21.67
2023-05-12T06:25:06.884Z,21.33
2023-05-12T06:25:38.264Z,21.30
2023-05-12T06:26:09.736Z,22.00
2023-05-12T06:26:41.093Z,21.75
2023-05-12T06:27:12.909Z,20.85
2023-05-12T06:27:44.548Z,20.27
2023-05-12T06:28:15.976Z,22.48
2023-05-12T06:28:47.758Z,20.88
2023-05-12T06:29:21.144Z,21.70
2023-05-12T06:29:52.543Z,20.90
2023-05-12T06:30:24.051Z,21.77
2023-05-12T06:30:55.464Z,22.08
2023-05-12T06:31:26.883Z,21.90
2023-05-12T06:31:58.304Z,21.40
2023-05-12T06:32:29.858Z,21.38
2023-05-12T06:33:01.487Z,22.85
2023-05-12T06:33:32.968Z,21.80
2023-05-12T06:34:04.630Z,21.23
2023-05-12T06:34:36.069Z,21.15
2023-05-12T06:35:07.915Z,21.67
2023-05-12T06:35:39.305Z,21.65
2023-05-12T06:36:12.121Z,20.27
2023-05-12T06:36:44.282Z,22.03
2023-05-12T06:37:15.897Z,21.17
2023-05-12T06:37:50.813Z,22.25
2023-05-12T06:38:22.226Z,20.30
2023-05-12T06:38:53.938Z,22.25
2023-05-12T06:39:25.387Z,21.45
2023-05-12T06:39:56.918Z,21.48
2023-05-12T06:40:28.316Z,20.02
2023-05-12T06:40:59.804Z,21.52
2023-05-12T06:41:32.220Z,21.55
2023-05-12T06:42:04.024Z,22.33
2023-05-12T06:42:35.584Z,22.83
2023-05-12T06:43:07.304Z,23.60
2023-05-12T06:43:38.905Z,22.15
2023-05-12T06:44:12.726Z,22.02
2023-05-12T06:44:44.158Z,22.38
2023-05-12T06:45:15.851Z,20.92
2023-05-12T06:45:47.290Z,22.00
2023-05-12T06:46:18.945Z,21.67
2023-05-12T06:46:50.522Z,21.95
2023-05-12T06:47:21.949Z,21.20
2023-05-12T06:47:53.437Z,22.65
2023-05-12T06:48:24.916Z,21.92
2023-05-12T06:48:56.369Z,22.60
2023-05-12T06:49:27.909Z,20.58
2023-05-12T06:49:59.242Z,22.35
2023-05-12T06:50:30.592Z,20.45
2023-05-12T06:51:02.080Z,22.77
2023-05-12T06:51:34.584Z,21.20
2023-05-12T06:52:06.759Z,21.42
2023-05-12T06:52:38.474Z,22.07
2023-05-12T06:53:09.891Z,22.08
2023-05-12T06:53:41.452Z,22.17
2023-05-12T06:54:12.795Z,21.77
2023-05-12T06:54:44.155Z,21.63
2023-05-12T06:55:19.857Z,22.10
2023-05-12T06:55:53.326Z,21.02
2023-05-12T06:56:24.898Z,21.33
2023-05-12T06:56:56.314Z,21.10
2023-05-12T06:57:27.773Z,20.48
2023-05-12T06:57:59.334Z,21.60
2023-05-12T06:58:30.850Z,21.15
2023-05-12T06:59:03.586Z,21.85
2023-05-12T06:59:35.179Z,20.90
2023-05-12T07:00:09.729Z,21.45
2023-05-12T07:00:41.347Z,22.33